sensor_id;sensor_type;location;lat;lon;timestamp;pressure;altitude;pressure_sealevel;temperature;humidity
42603;BME280;28233;55.748;48.752;2023-04-29T00:01:20;99230.75;;;12.40;74.46
42603;BME280;28233;55.748;48.752;2023-04-29T00:03:22;99241.28;;;12.38;74.90
42603;BME280;28233;55.748;48.752;2023-04-29T00:05:26;99240.03;;;12.35;75.01
42603;BME280;28233;55.748;48.752;2023-04-29T00:07:29;99237.81;;;12.29;75.36
42603;BME280;28233;55.748;48.752;2023-04-29T00:09:34;99237.03;;;12.28;75.64
42603;BME280;28233;55.748;48.752;2023-04-29T00:11:39;99235.41;;;12.27;75.34
42603;BME280;28233;55.748;48.752;2023-04-29T00:13:42;99231.38;;;12.24;75.17
42603;BME280;28233;55.748;48.752;2023-04-29T00:15:44;99237.25;;;12.23;75.29
42603;BME280;28233;55.748;48.752;2023-04-29T00:17:47;99237.09;;;12.19;75.27
42603;BME280;28233;55.748;48.752;2023-04-29T00:19:50;99242.47;;;12.16;75.89
42603;BME280;28233;55.748;48.752;2023-04-29T00:21:53;99238.44;;;12.13;75.90
42603;BME280;28233;55.748;48.752;2023-04-29T00:23:56;99238.66;;;12.08;76.12
42603;BME280;28233;55.748;48.752;2023-04-29T00:25:59;99248.88;;;12.08;75.98
42603;BME280;28233;55.748;48.752;2023-04-29T00:28:02;99238.56;;;12.04;76.19
42603;BME280;28233;55.748;48.752;2023-04-29T00:30:06;99241.97;;;12.01;76.48
42603;BME280;28233;55.748;48.752;2023-04-29T00:32:10;99241.16;;;12.01;76.11
42603;BME280;28233;55.748;48.752;2023-04-29T00:34:12;99244.13;;;11.96;76.80
42603;BME280;28233;55.748;48.752;2023-04-29T00:36:15;99237.81;;;11.95;76.75
42603;BME280;28233;55.748;48.752;2023-04-29T00:38:18;99241.69;;;11.94;77.04
42603;BME280;28233;55.748;48.752;2023-04-29T00:40:22;99228.50;;;11.88;77.46
42603;BME280;28233;55.748;48.752;2023-04-29T00:42:26;99222.56;;;11.77;77.45
42603;BME280;28233;55.748;48.752;2023-04-29T00:44:29;99227.75;;;11.78;77.76
42603;BME280;28233;55.748;48.752;2023-04-29T00:46:32;99230.50;;;11.78;77.97
42603;BME280;28233;55.748;48.752;2023-04-29T00:48:35;99230.50;;;11.78;78.04
42603;BME280;28233;55.748;48.752;2023-04-29T00:50:38;99234.59;;;11.72;78.32
42603;BME280;28233;55.748;48.752;2023-04-29T00:52:40;99222.63;;;11.68;78.66
42603;BME280;28233;55.748;48.752;2023-04-29T00:54:44;99226.53;;;11.67;78.62
42603;BME280;28233;55.748;48.752;2023-04-29T00:56:48;99224.44;;;11.64;78.92
42603;BME280;28233;55.748;48.752;2023-04-29T00:58:52;99225.47;;;11.59;79.17
42603;BME280;28233;55.748;48.752;2023-04-29T01:00:55;99219.81;;;11.56;79.31
42603;BME280;28233;55.748;48.752;2023-04-29T01:02:58;99222.09;;;11.54;79.49
42603;BME280;28233;55.748;48.752;2023-04-29T01:05:01;99220.03;;;11.51;79.89
42603;BME280;28233;55.748;48.752;2023-04-29T01:07:13;99217.59;;;11.49;80.08
42603;BME280;28233;55.748;48.752;2023-04-29T01:11:22;99208.97;;;11.38;80.76
42603;BME280;28233;55.748;48.752;2023-04-29T01:13:45;99212.50;;;11.39;80.82
42603;BME280;28233;55.748;48.752;2023-04-29T01:18:04;99210.97;;;11.29;80.99
42603;BME280;28233;55.748;48.752;2023-04-29T01:20:08;99216.47;;;11.29;81.12
42603;BME280;28233;55.748;48.752;2023-04-29T01:22:11;99200.28;;;11.28;80.74
42603;BME280;28233;55.748;48.752;2023-04-29T01:24:16;99201.44;;;11.27;81.08
42603;BME280;28233;55.748;48.752;2023-04-29T01:26:19;99209.34;;;11.28;80.85
42603;BME280;28233;55.748;48.752;2023-04-29T01:30:56;99205.78;;;11.28;81.34
42603;BME280;28233;55.748;48.752;2023-04-29T01:33:08;99206.59;;;11.28;81.22
42603;BME280;28233;55.748;48.752;2023-04-29T01:37:38;99208.69;;;11.31;80.94
42603;BME280;28233;55.748;48.752;2023-04-29T01:44:35;99210.47;;;11.27;81.17
42603;BME280;28233;55.748;48.752;2023-04-29T01:46:40;99211.59;;;11.26;81.92
42603;BME280;28233;55.748;48.752;2023-04-29T01:48:43;99205.31;;;11.26;81.93
42603;BME280;28233;55.748;48.752;2023-04-29T01:50:46;99204.50;;;11.25;81.94
42603;BME280;28233;55.748;48.752;2023-04-29T01:52:49;99208.41;;;11.24;82.21
42603;BME280;28233;55.748;48.752;2023-04-29T01:54:51;99211.97;;;11.25;82.68
42603;BME280;28233;55.748;48.752;2023-04-29T01:56:54;99212.97;;;11.20;83.19
42603;BME280;28233;55.748;48.752;2023-04-29T01:58:57;99213.75;;;11.20;82.84
42603;BME280;28233;55.748;48.752;2023-04-29T02:01:00;99210.69;;;11.22;83.21
42603;BME280;28233;55.748;48.752;2023-04-29T02:03:03;99215.34;;;11.21;83.38
42603;BME280;28233;55.748;48.752;2023-04-29T02:05:06;99218.25;;;11.25;83.31
42603;BME280;28233;55.748;48.752;2023-04-29T02:07:11;99221.47;;;11.27;82.91
42603;BME280;28233;55.748;48.752;2023-04-29T02:09:13;99225.84;;;11.28;83.38
42603;BME280;28233;55.748;48.752;2023-04-29T02:11:16;99229.75;;;11.27;83.43
42603;BME280;28233;55.748;48.752;2023-04-29T02:13:19;99226.63;;;11.29;83.14
42603;BME280;28233;55.748;48.752;2023-04-29T02:15:25;99217.59;;;11.28;83.19
42603;BME280;28233;55.748;48.752;2023-04-29T02:17:28;99227.09;;;11.31;83.37
42603;BME280;28233;55.748;48.752;2023-04-29T02:19:31;99224.03;;;11.32;82.90
42603;BME280;28233;55.748;48.752;2023-04-29T02:21:34;99222.22;;;11.36;82.79
42603;BME280;28233;55.748;48.752;2023-04-29T02:23:37;99228.66;;;11.40;82.88
42603;BME280;28233;55.748;48.752;2023-04-29T02:25:40;99233.03;;;11.41;82.76
42603;BME280;28233;55.748;48.752;2023-04-29T02:27:42;99235.91;;;11.45;82.78
42603;BME280;28233;55.748;48.752;2023-04-29T02:29:46;99230.56;;;11.49;82.46
42603;BME280;28233;55.748;48.752;2023-04-29T02:31:49;99239.28;;;11.51;82.01
42603;BME280;28233;55.748;48.752;2023-04-29T02:33:52;99233.91;;;11.54;82.11
42603;BME280;28233;55.748;48.752;2023-04-29T02:35:56;99237.13;;;11.56;82.17
42603;BME280;28233;55.748;48.752;2023-04-29T02:37:58;99231.31;;;11.58;82.16
42603;BME280;28233;55.748;48.752;2023-04-29T02:40:01;99232.56;;;11.60;82.22
42603;BME280;28233;55.748;48.752;2023-04-29T02:42:06;99237.75;;;11.62;81.71
42603;BME280;28233;55.748;48.752;2023-04-29T02:44:09;99235.00;;;11.62;81.75
42603;BME280;28233;55.748;48.752;2023-04-29T02:46:12;99235.75;;;11.71;81.91
42603;BME280;28233;55.748;48.752;2023-04-29T02:48:18;99241.50;;;11.78;81.81
42603;BME280;28233;55.748;48.752;2023-04-29T02:50:20;99238.53;;;11.83;81.45
42603;BME280;28233;55.748;48.752;2023-04-29T02:52:23;99246.94;;;11.87;81.28
42603;BME280;28233;55.748;48.752;2023-04-29T02:54:26;99255.81;;;11.93;81.32
42603;BME280;28233;55.748;48.752;2023-04-29T02:56:29;99250.78;;;11.95;81.06
42603;BME280;28233;55.748;48.752;2023-04-29T02:58:31;99252.38;;;11.96;80.34
42603;BME280;28233;55.748;48.752;2023-04-29T03:00:35;99253.13;;;12.05;80.38
42603;BME280;28233;55.748;48.752;2023-04-29T03:02:37;99253.13;;;12.05;80.62
42603;BME280;28233;55.748;48.752;2023-04-29T03:04:41;99256.59;;;12.14;80.14
42603;BME280;28233;55.748;48.752;2023-04-29T03:06:43;99259.94;;;12.20;79.47
42603;BME280;28233;55.748;48.752;2023-04-29T03:08:46;99260.28;;;12.18;79.14
42603;BME280;28233;55.748;48.752;2023-04-29T03:10:49;99258.13;;;12.24;79.31
42603;BME280;28233;55.748;48.752;2023-04-29T03:12:52;99255.50;;;12.27;79.01
42603;BME280;28233;55.748;48.752;2023-04-29T03:14:55;99259.66;;;12.34;79.03
42603;BME280;28233;55.748;48.752;2023-04-29T03:16:58;99258.94;;;12.37;78.75
42603;BME280;28233;55.748;48.752;2023-04-29T03:19:01;99258.41;;;12.43;78.21
42603;BME280;28233;55.748;48.752;2023-04-29T03:21:04;99260.13;;;12.48;78.87
42603;BME280;28233;55.748;48.752;2023-04-29T03:23:07;99260.75;;;12.54;78.95
42603;BME280;28233;55.748;48.752;2023-04-29T03:25:10;99258.09;;;12.57;78.94
42603;BME280;28233;55.748;48.752;2023-04-29T03:27:13;99253.06;;;12.59;78.57
42603;BME280;28233;55.748;48.752;2023-04-29T03:29:16;99259.97;;;12.65;78.72
42603;BME280;28233;55.748;48.752;2023-04-29T03:31:19;99261.00;;;12.73;78.50
42603;BME280;28233;55.748;48.752;2023-04-29T03:33:24;99262.84;;;12.81;78.34
42603;BME280;28233;55.748;48.752;2023-04-29T03:35:27;99262.28;;;12.88;77.65
42603;BME280;28233;55.748;48.752;2023-04-29T03:37:30;99267.69;;;12.97;77.74
42603;BME280;28233;55.748;48.752;2023-04-29T03:39:32;99270.53;;;13.00;77.17
42603;BME280;28233;55.748;48.752;2023-04-29T03:41:35;99267.22;;;13.07;77.63
42603;BME280;28233;55.748;48.752;2023-04-29T03:43:38;99266.19;;;13.11;76.82
42603;BME280;28233;55.748;48.752;2023-04-29T03:45:41;99260.09;;;13.18;76.66
42603;BME280;28233;55.748;48.752;2023-04-29T03:47:44;99261.63;;;13.28;76.42
42603;BME280;28233;55.748;48.752;2023-04-29T03:49:47;99265.75;;;13.34;75.79
42603;BME280;28233;55.748;48.752;2023-04-29T03:51:50;99265.66;;;13.43;75.60
42603;BME280;28233;55.748;48.752;2023-04-29T03:53:54;99266.19;;;13.48;75.06
42603;BME280;28233;55.748;48.752;2023-04-29T03:55:59;99270.34;;;13.55;74.90
42603;BME280;28233;55.748;48.752;2023-04-29T03:58:02;99272.88;;;13.60;75.63
42603;BME280;28233;55.748;48.752;2023-04-29T04:00:05;99271.56;;;13.69;74.56
42603;BME280;28233;55.748;48.752;2023-04-29T04:02:08;99277.75;;;13.79;74.31
42603;BME280;28233;55.748;48.752;2023-04-29T04:04:11;99274.41;;;13.85;73.26
42603;BME280;28233;55.748;48.752;2023-04-29T04:06:14;99272.19;;;13.91;72.38
42603;BME280;28233;55.748;48.752;2023-04-29T04:08:17;99277.13;;;13.98;72.15
42603;BME280;28233;55.748;48.752;2023-04-29T04:10:19;99277.44;;;14.08;72.91
42603;BME280;28233;55.748;48.752;2023-04-29T04:12:22;99277.41;;;14.21;71.93
42603;BME280;28233;55.748;48.752;2023-04-29T04:14:25;99275.97;;;14.27;71.28
42603;BME280;28233;55.748;48.752;2023-04-29T04:16:28;99270.56;;;14.30;70.60
42603;BME280;28233;55.748;48.752;2023-04-29T04:18:31;99280.56;;;14.35;69.89
42603;BME280;28233;55.748;48.752;2023-04-29T04:20:36;99279.03;;;14.37;70.33
42603;BME280;28233;55.748;48.752;2023-04-29T04:22:39;99282.81;;;14.45;70.24
42603;BME280;28233;55.748;48.752;2023-04-29T04:24:42;99269.50;;;14.51;70.05
42603;BME280;28233;55.748;48.752;2023-04-29T04:26:45;99272.94;;;14.60;69.95
42603;BME280;28233;55.748;48.752;2023-04-29T04:28:48;99272.34;;;14.67;69.68
42603;BME280;28233;55.748;48.752;2023-04-29T04:30:51;99270.13;;;14.72;69.06
42603;BME280;28233;55.748;48.752;2023-04-29T04:32:54;99262.47;;;14.82;68.96
42603;BME280;28233;55.748;48.752;2023-04-29T04:34:56;99268.59;;;14.91;68.13
42603;BME280;28233;55.748;48.752;2023-04-29T04:37:00;99271.91;;;14.96;67.19
42603;BME280;28233;55.748;48.752;2023-04-29T04:39:03;99266.22;;;15.05;67.50
42603;BME280;28233;55.748;48.752;2023-04-29T04:41:06;99273.50;;;15.13;67.55
42603;BME280;28233;55.748;48.752;2023-04-29T04:43:11;99267.78;;;15.22;66.92
42603;BME280;28233;55.748;48.752;2023-04-29T04:45:14;99279.19;;;15.36;65.66
42603;BME280;28233;55.748;48.752;2023-04-29T04:47:17;99279.03;;;15.45;66.33
42603;BME280;28233;55.748;48.752;2023-04-29T04:49:22;99276.13;;;15.57;65.01
42603;BME280;28233;55.748;48.752;2023-04-29T04:51:26;99276.72;;;15.67;64.50
42603;BME280;28233;55.748;48.752;2023-04-29T04:53:30;99275.00;;;15.78;64.57
42603;BME280;28233;55.748;48.752;2023-04-29T04:55:33;99275.59;;;15.87;64.33
42603;BME280;28233;55.748;48.752;2023-04-29T04:57:36;99278.97;;;15.96;64.32
42603;BME280;28233;55.748;48.752;2023-04-29T04:59:39;99279.56;;;16.05;64.76
42603;BME280;28233;55.748;48.752;2023-04-29T05:01:42;99272.63;;;16.15;63.48
42603;BME280;28233;55.748;48.752;2023-04-29T05:03:45;99273.94;;;16.21;63.46
42603;BME280;28233;55.748;48.752;2023-04-29T05:05:55;99274.44;;;16.27;62.00
42603;BME280;28233;55.748;48.752;2023-04-29T05:07:58;99264.66;;;16.33;62.32
42603;BME280;28233;55.748;48.752;2023-04-29T05:10:01;99276.25;;;16.39;61.03
42603;BME280;28233;55.748;48.752;2023-04-29T05:12:04;99273.25;;;16.47;60.89
42603;BME280;28233;55.748;48.752;2023-04-29T05:14:07;99276.59;;;16.57;61.63
42603;BME280;28233;55.748;48.752;2023-04-29T05:16:10;99275.97;;;16.67;62.36
42603;BME280;28233;55.748;48.752;2023-04-29T05:18:13;99267.44;;;16.76;63.28
42603;BME280;28233;55.748;48.752;2023-04-29T05:20:16;99277.13;;;16.85;63.67
42603;BME280;28233;55.748;48.752;2023-04-29T05:22:19;99278.00;;;16.89;62.06
42603;BME280;28233;55.748;48.752;2023-04-29T05:24:22;99272.56;;;16.97;61.45
42603;BME280;28233;55.748;48.752;2023-04-29T05:26:25;99274.72;;;17.07;61.42
42603;BME280;28233;55.748;48.752;2023-04-29T05:28:27;99278.03;;;17.16;59.01
42603;BME280;28233;55.748;48.752;2023-04-29T05:30:31;99274.66;;;17.26;59.16
42603;BME280;28233;55.748;48.752;2023-04-29T05:32:34;99272.03;;;17.37;58.73
42603;BME280;28233;55.748;48.752;2023-04-29T05:34:37;99274.91;;;17.44;58.94
42603;BME280;28233;55.748;48.752;2023-04-29T05:36:40;99282.56;;;17.51;59.50
42603;BME280;28233;55.748;48.752;2023-04-29T05:38:43;99268.84;;;17.62;58.49
42603;BME280;28233;55.748;48.752;2023-04-29T05:40:46;99275.72;;;17.71;59.40
42603;BME280;28233;55.748;48.752;2023-04-29T05:42:51;99277.84;;;17.82;55.48
42603;BME280;28233;55.748;48.752;2023-04-29T05:44:54;99278.00;;;17.92;55.01
42603;BME280;28233;55.748;48.752;2023-04-29T05:46:57;99278.44;;;17.94;57.41
42603;BME280;28233;55.748;48.752;2023-04-29T05:49:00;99267.78;;;18.00;56.33
42603;BME280;28233;55.748;48.752;2023-04-29T05:51:03;99278.69;;;18.16;54.20
42603;BME280;28233;55.748;48.752;2023-04-29T05:53:06;99282.34;;;18.24;51.31
42603;BME280;28233;55.748;48.752;2023-04-29T05:55:08;99287.63;;;18.32;51.42
42603;BME280;28233;55.748;48.752;2023-04-29T05:57:11;99280.16;;;18.40;49.99
42603;BME280;28233;55.748;48.752;2023-04-29T05:59:14;99274.69;;;18.47;49.34
42603;BME280;28233;55.748;48.752;2023-04-29T06:01:17;99285.09;;;18.54;48.37
42603;BME280;28233;55.748;48.752;2023-04-29T06:03:21;99279.59;;;18.61;48.59
42603;BME280;28233;55.748;48.752;2023-04-29T06:05:25;99281.31;;;18.73;48.93
42603;BME280;28233;55.748;48.752;2023-04-29T06:07:29;99273.06;;;18.80;49.39
42603;BME280;28233;55.748;48.752;2023-04-29T06:09:32;99276.69;;;18.88;48.74
42603;BME280;28233;55.748;48.752;2023-04-29T06:11:35;99279.53;;;18.95;47.86
42603;BME280;28233;55.748;48.752;2023-04-29T06:13:37;99288.00;;;19.06;45.78
42603;BME280;28233;55.748;48.752;2023-04-29T06:15:40;99283.72;;;19.15;46.19
42603;BME280;28233;55.748;48.752;2023-04-29T06:17:43;99290.53;;;19.21;45.43
42603;BME280;28233;55.748;48.752;2023-04-29T06:19:46;99281.03;;;19.30;46.73
42603;BME280;28233;55.748;48.752;2023-04-29T06:21:49;99287.03;;;19.35;45.00
42603;BME280;28233;55.748;48.752;2023-04-29T06:23:53;99274.72;;;19.36;46.65
42603;BME280;28233;55.748;48.752;2023-04-29T06:25:56;99284.28;;;19.39;47.19
42603;BME280;28233;55.748;48.752;2023-04-29T06:27:59;99284.75;;;19.48;44.92
42603;BME280;28233;55.748;48.752;2023-04-29T06:30:02;99284.00;;;19.55;47.13
42603;BME280;28233;55.748;48.752;2023-04-29T06:32:07;99282.44;;;19.61;45.82
42603;BME280;28233;55.748;48.752;2023-04-29T06:34:10;99271.78;;;19.70;44.03
42603;BME280;28233;55.748;48.752;2023-04-29T06:36:13;99273.00;;;19.76;45.06
42603;BME280;28233;55.748;48.752;2023-04-29T06:38:16;99279.81;;;19.82;45.84
42603;BME280;28233;55.748;48.752;2023-04-29T06:40:18;99273.88;;;19.88;45.30
42603;BME280;28233;55.748;48.752;2023-04-29T06:42:21;99270.31;;;19.94;45.02
42603;BME280;28233;55.748;48.752;2023-04-29T06:44:24;99271.94;;;20.02;43.84
42603;BME280;28233;55.748;48.752;2023-04-29T06:46:27;99281.94;;;20.14;43.58
42603;BME280;28233;55.748;48.752;2023-04-29T06:48:31;99273.63;;;20.21;43.41
42603;BME280;28233;55.748;48.752;2023-04-29T06:50:34;99278.41;;;20.32;45.67
42603;BME280;28233;55.748;48.752;2023-04-29T06:52:38;99271.66;;;20.33;45.16
42603;BME280;28233;55.748;48.752;2023-04-29T06:54:41;99275.66;;;20.39;46.09
42603;BME280;28233;55.748;48.752;2023-04-29T06:56:44;99268.50;;;20.38;42.97
42603;BME280;28233;55.748;48.752;2023-04-29T06:58:47;99272.09;;;20.53;42.15
42603;BME280;28233;55.748;48.752;2023-04-29T07:00:50;99270.56;;;20.59;41.85
42603;BME280;28233;55.748;48.752;2023-04-29T07:02:54;99267.41;;;20.67;41.49
42603;BME280;28233;55.748;48.752;2023-04-29T07:04:57;99269.78;;;20.76;43.78
42603;BME280;28233;55.748;48.752;2023-04-29T07:07:01;99271.81;;;20.86;42.73
42603;BME280;28233;55.748;48.752;2023-04-29T07:09:04;99272.63;;;20.98;41.58
42603;BME280;28233;55.748;48.752;2023-04-29T07:11:07;99275.00;;;21.06;39.89
42603;BME280;28233;55.748;48.752;2023-04-29T07:13:10;99273.81;;;21.15;40.25
42603;BME280;28233;55.748;48.752;2023-04-29T07:15:13;99269.81;;;21.26;40.15
42603;BME280;28233;55.748;48.752;2023-04-29T07:17:17;99258.22;;;21.35;39.81
42603;BME280;28233;55.748;48.752;2023-04-29T07:19:20;99258.25;;;21.42;40.11
42603;BME280;28233;55.748;48.752;2023-04-29T07:21:23;99253.84;;;21.52;40.46
42603;BME280;28233;55.748;48.752;2023-04-29T07:23:27;99261.41;;;21.62;41.58
42603;BME280;28233;55.748;48.752;2023-04-29T07:25:30;99256.59;;;21.70;40.22
42603;BME280;28233;55.748;48.752;2023-04-29T07:27:33;99264.56;;;21.75;41.60
42603;BME280;28233;55.748;48.752;2023-04-29T07:29:37;99255.78;;;21.80;38.97
42603;BME280;28233;55.748;48.752;2023-04-29T07:31:41;99255.72;;;21.91;40.04
42603;BME280;28233;55.748;48.752;2023-04-29T07:33:45;99252.94;;;21.94;40.57
42603;BME280;28233;55.748;48.752;2023-04-29T07:35:49;99251.31;;;21.97;39.34
42603;BME280;28233;55.748;48.752;2023-04-29T07:37:52;99248.09;;;21.99;40.18
42603;BME280;28233;55.748;48.752;2023-04-29T07:39:55;99249.69;;;22.07;40.51
42603;BME280;28233;55.748;48.752;2023-04-29T07:41:58;99250.03;;;22.16;40.39
42603;BME280;28233;55.748;48.752;2023-04-29T07:44:02;99254.03;;;22.22;41.14
42603;BME280;28233;55.748;48.752;2023-04-29T07:46:07;99250.81;;;22.27;39.11
42603;BME280;28233;55.748;48.752;2023-04-29T07:48:11;99253.19;;;22.32;37.06
42603;BME280;28233;55.748;48.752;2023-04-29T07:50:14;99242.75;;;22.44;37.08
42603;BME280;28233;55.748;48.752;2023-04-29T07:52:17;99243.50;;;22.48;37.63
42603;BME280;28233;55.748;48.752;2023-04-29T07:54:20;99237.44;;;22.60;37.44
42603;BME280;28233;55.748;48.752;2023-04-29T07:56:24;99250.22;;;22.61;37.69
42603;BME280;28233;55.748;48.752;2023-04-29T07:58:27;99250.19;;;22.65;36.79
42603;BME280;28233;55.748;48.752;2023-04-29T08:00:30;99245.38;;;22.69;36.37
42603;BME280;28233;55.748;48.752;2023-04-29T08:02:33;99237.34;;;22.74;36.67
42603;BME280;28233;55.748;48.752;2023-04-29T08:04:40;99238.06;;;22.82;35.77
42603;BME280;28233;55.748;48.752;2023-04-29T08:06:44;99231.63;;;22.89;35.74
42603;BME280;28233;55.748;48.752;2023-04-29T08:08:47;99235.94;;;22.97;35.71
42603;BME280;28233;55.748;48.752;2023-04-29T08:10:50;99231.94;;;23.05;35.11
42603;BME280;28233;55.748;48.752;2023-04-29T08:12:53;99241.44;;;23.15;36.06
42603;BME280;28233;55.748;48.752;2023-04-29T08:14:56;99220.91;;;23.25;33.63
42603;BME280;28233;55.748;48.752;2023-04-29T08:17:00;99227.28;;;23.29;35.50
42603;BME280;28233;55.748;48.752;2023-04-29T08:19:03;99226.91;;;23.31;35.34
42603;BME280;28233;55.748;48.752;2023-04-29T08:21:06;99222.78;;;23.39;36.27
42603;BME280;28233;55.748;48.752;2023-04-29T08:23:09;99227.56;;;23.42;35.20
42603;BME280;28233;55.748;48.752;2023-04-29T08:25:13;99223.88;;;23.52;35.48
42603;BME280;28233;55.748;48.752;2023-04-29T08:27:16;99219.38;;;23.58;35.04
42603;BME280;28233;55.748;48.752;2023-04-29T08:29:19;99219.69;;;23.68;36.28
42603;BME280;28233;55.748;48.752;2023-04-29T08:31:22;99216.72;;;23.82;34.22
42603;BME280;28233;55.748;48.752;2023-04-29T08:33:25;99209.84;;;23.90;35.81
42603;BME280;28233;55.748;48.752;2023-04-29T08:35:28;99210.44;;;24.05;35.62
42603;BME280;28233;55.748;48.752;2023-04-29T08:37:32;99208.22;;;24.20;36.15
42603;BME280;28233;55.748;48.752;2023-04-29T08:39:35;99209.94;;;24.14;34.74
42603;BME280;28233;55.748;48.752;2023-04-29T08:41:38;99212.06;;;24.06;35.95
42603;BME280;28233;55.748;48.752;2023-04-29T08:43:40;99208.47;;;24.02;33.79
42603;BME280;28233;55.748;48.752;2023-04-29T08:45:44;99208.66;;;23.88;34.93
42603;BME280;28233;55.748;48.752;2023-04-29T08:47:48;99207.44;;;23.89;37.95
42603;BME280;28233;55.748;48.752;2023-04-29T08:49:52;99208.81;;;24.08;35.87
42603;BME280;28233;55.748;48.752;2023-04-29T08:51:55;99204.50;;;24.30;36.30
42603;BME280;28233;55.748;48.752;2023-04-29T08:53:58;99205.47;;;24.47;34.97
42603;BME280;28233;55.748;48.752;2023-04-29T08:56:08;99194.56;;;24.53;34.75
42603;BME280;28233;55.748;48.752;2023-04-29T08:58:13;99198.59;;;24.52;34.00
42603;BME280;28233;55.748;48.752;2023-04-29T09:00:17;99204.69;;;24.46;32.42
42603;BME280;28233;55.748;48.752;2023-04-29T09:02:22;99202.56;;;24.54;30.80
42603;BME280;28233;55.748;48.752;2023-04-29T09:07:21;99207.03;;;24.21;31.97
42603;BME280;28233;55.748;48.752;2023-04-29T09:09:30;99204.53;;;23.96;33.81
42603;BME280;28233;55.748;48.752;2023-04-29T09:11:36;99204.78;;;23.78;33.92
42603;BME280;28233;55.748;48.752;2023-04-29T09:13:39;99204.81;;;23.74;34.19
42603;BME280;28233;55.748;48.752;2023-04-29T09:15:42;99189.31;;;23.97;35.58
42603;BME280;28233;55.748;48.752;2023-04-29T09:17:46;99193.53;;;24.39;35.56
42603;BME280;28233;55.748;48.752;2023-04-29T09:19:49;99187.13;;;24.66;35.95
42603;BME280;28233;55.748;48.752;2023-04-29T09:21:53;99184.41;;;24.86;33.34
42603;BME280;28233;55.748;48.752;2023-04-29T09:24:01;99178.06;;;25.05;32.73
42603;BME280;28233;55.748;48.752;2023-04-29T09:26:06;99188.25;;;24.96;31.41
42603;BME280;28233;55.748;48.752;2023-04-29T09:28:14;99189.06;;;24.96;32.80
42603;BME280;28233;55.748;48.752;2023-04-29T09:30:18;99192.41;;;25.11;32.66
42603;BME280;28233;55.748;48.752;2023-04-29T09:32:21;99184.69;;;25.15;31.77
42603;BME280;28233;55.748;48.752;2023-04-29T09:34:34;99192.28;;;24.95;29.77
42603;BME280;28233;55.748;48.752;2023-04-29T09:38:53;99186.34;;;25.13;32.66
42603;BME280;28233;55.748;48.752;2023-04-29T09:41:09;99188.81;;;25.34;31.18
42603;BME280;28233;55.748;48.752;2023-04-29T09:43:17;99189.03;;;25.43;30.32
42603;BME280;28233;55.748;48.752;2023-04-29T09:45:38;99187.09;;;25.60;30.36
42603;BME280;28233;55.748;48.752;2023-04-29T09:47:41;99188.19;;;25.66;30.36
42603;BME280;28233;55.748;48.752;2023-04-29T09:49:44;99185.56;;;25.56;29.62
42603;BME280;28233;55.748;48.752;2023-04-29T09:51:56;99191.63;;;25.34;26.75
42603;BME280;28233;55.748;48.752;2023-04-29T09:54:00;99190.75;;;25.37;27.36
42603;BME280;28233;55.748;48.752;2023-04-29T09:56:04;99181.28;;;25.27;27.40
42603;BME280;28233;55.748;48.752;2023-04-29T09:58:07;99181.75;;;25.26;26.72
42603;BME280;28233;55.748;48.752;2023-04-29T10:00:11;99185.94;;;25.14;27.44
42603;BME280;28233;55.748;48.752;2023-04-29T10:02:16;99183.59;;;25.09;28.01
42603;BME280;28233;55.748;48.752;2023-04-29T10:04:23;99170.78;;;25.08;28.77
42603;BME280;28233;55.748;48.752;2023-04-29T10:06:26;99175.38;;;24.98;28.24
42603;BME280;28233;55.748;48.752;2023-04-29T10:08:31;99172.19;;;24.96;27.89
42603;BME280;28233;55.748;48.752;2023-04-29T10:10:35;99162.84;;;25.03;28.72
42603;BME280;28233;55.748;48.752;2023-04-29T10:12:39;99167.84;;;25.15;28.82
42603;BME280;28233;55.748;48.752;2023-04-29T10:14:47;99161.34;;;25.42;26.98
42603;BME280;28233;55.748;48.752;2023-04-29T10:17:01;99170.78;;;25.51;25.21
42603;BME280;28233;55.748;48.752;2023-04-29T10:19:11;99168.09;;;25.44;27.12
42603;BME280;28233;55.748;48.752;2023-04-29T10:21:19;99159.34;;;25.42;26.14
42603;BME280;28233;55.748;48.752;2023-04-29T10:23:23;99164.47;;;25.47;28.97
42603;BME280;28233;55.748;48.752;2023-04-29T10:25:28;99164.81;;;25.69;26.83
42603;BME280;28233;55.748;48.752;2023-04-29T10:27:32;99151.97;;;25.88;28.42
42603;BME280;28233;55.748;48.752;2023-04-29T10:29:36;99162.06;;;26.06;26.91
42603;BME280;28233;55.748;48.752;2023-04-29T10:31:42;99166.22;;;26.18;26.88
42603;BME280;28233;55.748;48.752;2023-04-29T10:33:46;99160.97;;;26.36;26.23
42603;BME280;28233;55.748;48.752;2023-04-29T10:35:50;99161.59;;;26.27;25.89
42603;BME280;28233;55.748;48.752;2023-04-29T10:37:58;99158.41;;;25.89;26.90
42603;BME280;28233;55.748;48.752;2023-04-29T10:47:20;99150.22;;;26.31;29.32
42603;BME280;28233;55.748;48.752;2023-04-29T10:49:23;99148.56;;;26.33;28.04
42603;BME280;28233;55.748;48.752;2023-04-29T10:54:03;99164.63;;;26.53;26.41
42603;BME280;28233;55.748;48.752;2023-04-29T10:56:08;99151.41;;;26.66;25.57
42603;BME280;28233;55.748;48.752;2023-04-29T10:58:33;99159.69;;;26.73;26.26
42603;BME280;28233;55.748;48.752;2023-04-29T11:00:36;99139.91;;;26.77;27.47
42603;BME280;28233;55.748;48.752;2023-04-29T11:02:42;99155.72;;;26.87;27.29
42603;BME280;28233;55.748;48.752;2023-04-29T11:05:08;99148.41;;;26.73;26.02
42603;BME280;28233;55.748;48.752;2023-04-29T11:07:25;99148.72;;;26.63;26.39
42603;BME280;28233;55.748;48.752;2023-04-29T11:09:34;99140.91;;;26.50;26.65
42603;BME280;28233;55.748;48.752;2023-04-29T11:13:55;99152.69;;;25.92;27.23
42603;BME280;28233;55.748;48.752;2023-04-29T11:18:10;99144.38;;;26.05;28.06
42603;BME280;28233;55.748;48.752;2023-04-29T11:20:13;99140.91;;;26.18;27.96
42603;BME280;28233;55.748;48.752;2023-04-29T11:24:24;99138.09;;;26.83;27.31